Time;durP1;ratioP1;P1;durP2;ratioP2;P2;SDS_P1;SDS_P2;PMS_P1;PMS_P2;Temp;Humidity;BMP_temperature;BMP_pressure;BME280_temperature;BME280_humidity;BME280_pressure;Samples;Min_cycle;Max_cycle;Signal;HPM_P1;HPM_P2
2022/03/10 00:00:09;;;;;;;;;;;13.90;49.40;;;;;;5072742;28;19931;-71
2022/03/10 00:02:36;;;;;;;;;;;13.10;49.00;;;;;;5071060;28;19931;-68
2022/03/10 00:05:02;;;;;;;;;;;13.10;49.00;;;;;;5071262;28;19931;-71
2022/03/10 00:07:31;;;;;;;;;;;13.10;49.10;;;;;;5072350;28;19929;-68
2022/03/10 00:09:57;;;;;;;;;;;13.00;49.00;;;;;;5071056;28;19930;-68
2022/03/10 00:12:24;;;;;;;;;;;13.10;49.10;;;;;;5070748;28;19930;-68
2022/03/10 00:14:50;;;;;;;;;;;13.00;49.10;;;;;;5071003;28;19925;-68
2022/03/10 00:17:17;;;;;;;;;;;13.00;49.20;;;;;;5072111;28;19924;-70
2022/03/10 00:19:44;;;;;;;;;;;13.00;49.20;;;;;;5071934;28;19931;-68
2022/03/10 00:22:11;;;;;;;;;;;13.00;49.20;;;;;;5071200;28;20391;-68
2022/03/10 00:24:39;;;;;;;;;;;13.70;49.60;;;;;;5071371;28;19924;-68
2022/03/10 00:27:06;;;;;;;;;;;12.90;49.10;;;;;;5070861;28;19925;-68
2022/03/10 00:29:32;;;;;;;;;;;12.90;49.10;;;;;;5072559;28;19924;-68
2022/03/10 00:32:01;;;;;;;;;;;13.00;49.20;;;;;;5071744;28;19928;-71
2022/03/10 00:34:28;;;;;;;;;;;12.90;49.10;;;;;;5071053;28;19936;-68
2022/03/10 00:36:54;;;;;;;;;;;13.50;49.50;;;;;;5071074;28;19924;-67
2022/03/10 00:39:21;;;;;;;;;;;12.90;49.10;;;;;;5071085;28;20369;-68
2022/03/10 00:41:49;;;;;;;;;;;12.80;49.10;;;;;;5070902;28;19931;-69
2022/03/10 00:44:16;;;;;;;;;;;12.90;49.70;;;;;;5070976;28;19925;-71
2022/03/10 00:46:43;;;;;;;;;;;12.90;49.20;;;;;;5070570;28;19924;-68
2022/03/10 00:49:10;;;;;;;;;;;12.80;49.10;;;;;;5071314;28;19928;-71
2022/03/10 00:51:37;;;;;;;;;;;12.80;49.10;;;;;;5071830;28;20396;-68
2022/03/10 00:54:04;;;;;;;;;;;12.80;49.20;;;;;;5070922;28;19925;-72
2022/03/10 00:56:30;;;;;;;;;;;12.80;49.10;;;;;;5071567;28;20418;-68
2022/03/10 00:58:58;;;;;;;;;;;12.80;49.10;;;;;;5074848;28;20391;-68
2022/03/10 01:01:25;;;;;;;;;;;12.80;49.20;;;;;;5074689;28;19924;-68
2022/03/10 01:03:51;;;;;;;;;;;13.20;49.40;;;;;;5074114;28;19924;-68
2022/03/10 01:06:18;;;;;;;;;;;12.80;49.20;;;;;;5075905;28;19924;-69
2022/03/10 01:08:44;;;;;;;;;;;12.80;49.10;;;;;;5074560;28;19924;-70
2022/03/10 01:11:11;;;;;;;;;;;12.70;49.20;;;;;;5074397;28;19924;-70
2022/03/10 01:13:38;;;;;;;;;;;12.70;49.20;;;;;;5075450;28;19924;-71
2022/03/10 01:16:06;;;;;;;;;;;12.80;49.20;;;;;;5074443;28;19925;-71
2022/03/10 01:18:32;;;;;;;;;;;12.70;49.10;;;;;;5073846;28;20015;-69
2022/03/10 01:20:59;;;;;;;;;;;13.60;49.50;;;;;;5075368;28;19931;-70
2022/03/10 01:23:25;;;;;;;;;;;12.80;49.10;;;;;;5074836;28;19931;-71
2022/03/10 01:25:52;;;;;;;;;;;13.70;49.60;;;;;;5075324;28;19924;-71
2022/03/10 01:28:18;;;;;;;;;;;12.70;49.10;;;;;;5075184;28;20014;-71
2022/03/10 01:30:45;;;;;;;;;;;12.80;49.10;;;;;;5075153;28;19925;-70
2022/03/10 01:33:13;;;;;;;;;;;12.80;49.10;;;;;;5074884;28;19930;-70
2022/03/10 01:35:39;;;;;;;;;;;12.80;49.10;;;;;;5073617;28;20385;-71
2022/03/10 01:38:06;;;;;;;;;;;12.80;49.10;;;;;;5074085;28;20369;-70
2022/03/10 01:40:32;;;;;;;;;;;13.30;49.30;;;;;;5075067;28;20389;-71
2022/03/10 01:42:59;;;;;;;;;;;12.80;49.10;;;;;;5073416;28;19931;-69
2022/03/10 01:45:25;;;;;;;;;;;12.80;49.00;;;;;;5073619;28;19925;-70
2022/03/10 01:47:52;;;;;;;;;;;12.80;49.00;;;;;;5073764;28;19955;-71
2022/03/10 01:50:20;;;;;;;;;;;12.80;48.90;;;;;;5073540;28;19931;-71
2022/03/10 01:52:47;;;;;;;;;;;12.90;49.00;;;;;;5074661;28;20343;-70
2022/03/10 01:55:13;;;;;;;;;;;13.30;49.20;;;;;;5073603;28;19929;-69
2022/03/10 01:57:40;;;;;;;;;;;13.50;49.30;;;;;;5090735;28;19931;-71
2022/03/10 02:00:08;;;;;;;;;;;12.90;49.00;;;;;;5074644;28;20300;-71
2022/03/10 02:02:34;;;;;;;;;;;12.70;48.80;;;;;;5870618;22;19930;-71
2022/03/10 02:05:01;;;;;;;;;;;12.90;49.00;;;;;;5095068;28;19924;-66
2022/03/10 02:10:19;;;;;;;;;;;13.30;49.10;;;;;;5096435;28;19924;-69
2022/03/10 02:12:46;;;;;;;;;;;12.90;48.90;;;;;;5111697;28;20388;-70
2022/03/10 02:17:57;;;;;;;;;;;12.90;48.90;;;;;;5076746;28;19924;-70
2022/03/10 02:20:24;;;;;;;;;;;13.20;48.90;;;;;;5094268;28;19928;-71
2022/03/10 02:22:52;;;;;;;;;;;13.60;49.10;;;;;;5094543;28;19924;-71
2022/03/10 02:25:18;;;;;;;;;;;13.30;49.00;;;;;;5076663;28;19934;-71
2022/03/10 02:27:48;;;;;;;;;;;13.60;49.10;;;;;;5076405;28;19931;-71
2022/03/10 02:30:14;;;;;;;;;;;13.00;48.70;;;;;;5094239;28;19931;-71
2022/03/10 02:32:41;;;;;;;;;;;13.00;48.80;;;;;;5094081;28;20006;-70
2022/03/10 02:35:08;;;;;;;;;;;13.00;48.70;;;;;;5093986;28;19931;-70
2022/03/10 02:37:35;;;;;;;;;;;13.00;48.70;;;;;;5076353;28;19924;-71
2022/03/10 02:40:03;;;;;;;;;;;13.00;48.70;;;;;;5094048;28;19924;-70
2022/03/10 02:42:30;;;;;;;;;;;13.00;48.70;;;;;;5093815;28;19924;-69
2022/03/10 02:44:56;;;;;;;;;;;13.00;48.70;;;;;;5094246;28;19975;-71
2022/03/10 02:47:24;;;;;;;;;;;13.10;48.70;;;;;;5075930;28;20287;-71
2022/03/10 02:49:50;;;;;;;;;;;13.60;49.00;;;;;;5072214;28;19931;-71
2022/03/10 02:52:17;;;;;;;;;;;13.40;48.90;;;;;;5072559;28;19931;-71
2022/03/10 02:54:44;;;;;;;;;;;13.10;48.60;;;;;;5075747;28;19926;-71
2022/03/10 02:57:12;;;;;;;;;;;13.50;48.90;;;;;;5075942;28;19925;-70
2022/03/10 02:59:38;;;;;;;;;;;13.00;48.60;;;;;;5094219;28;19927;-70
2022/03/10 03:02:05;;;;;;;;;;;13.10;48.70;;;;;;5093399;28;19930;-71
2022/03/10 03:04:32;;;;;;;;;;;13.90;49.10;;;;;;5075435;28;19981;-71
2022/03/10 03:06:58;;;;;;;;;;;13.10;48.70;;;;;;5093785;28;20059;-70
2022/03/10 03:09:25;;;;;;;;;;;13.80;49.10;;;;;;5059234;28;19931;-71
2022/03/10 03:11:51;;;;;;;;;;;13.10;48.70;;;;;;5093489;28;19930;-71
2022/03/10 03:14:22;;;;;;;;;;;13.10;48.70;;;;;;5075417;28;19930;-71
2022/03/10 03:16:49;;;;;;;;;;;13.10;48.70;;;;;;5093217;28;19973;-70
2022/03/10 03:19:15;;;;;;;;;;;13.10;48.60;;;;;;5075467;28;20242;-71
2022/03/10 03:21:42;;;;;;;;;;;13.80;49.00;;;;;;5092435;28;20269;-71
2022/03/10 03:24:09;;;;;;;;;;;13.20;48.70;;;;;;5092912;28;20324;-69
2022/03/10 03:26:35;;;;;;;;;;;13.10;48.60;;;;;;5075450;28;20291;-70
2022/03/10 03:29:02;;;;;;;;;;;13.10;48.60;;;;;;5093031;28;20287;-71
2022/03/10 03:31:29;;;;;;;;;;;13.10;48.60;;;;;;5075282;28;19950;-71
2022/03/10 03:33:56;;;;;;;;;;;13.80;49.00;;;;;;5093069;28;19950;-71
2022/03/10 03:36:23;;;;;;;;;;;13.10;48.60;;;;;;5093175;28;19946;-70
2022/03/10 03:38:49;;;;;;;;;;;13.80;49.00;;;;;;5074982;28;19928;-70
2022/03/10 03:41:16;;;;;;;;;;;13.50;48.80;;;;;;5075126;28;19950;-71
2022/03/10 03:43:42;;;;;;;;;;;13.80;48.90;;;;;;5074537;28;20012;-71
2022/03/10 03:46:10;;;;;;;;;;;13.10;48.60;;;;;;5092839;28;19928;-71
2022/03/10 03:48:38;;;;;;;;;;;13.10;48.50;;;;;;5074562;28;19924;-71
2022/03/10 03:51:04;;;;;;;;;;;14.00;49.00;;;;;;5075089;28;20352;-71
2022/03/10 03:53:31;;;;;;;;;;;13.60;48.80;;;;;;5092745;28;20276;-71
2022/03/10 03:55:57;;;;;;;;;;;13.70;48.80;;;;;;5092530;28;20389;-70
2022/03/10 03:58:24;;;;;;;;;;;13.10;48.50;;;;;;5093157;28;20299;-70
2022/03/10 04:00:51;;;;;;;;;;;13.10;48.50;;;;;;5092710;28;19962;-71
2022/03/10 04:03:17;;;;;;;;;;;13.10;48.50;;;;;;5074572;28;19946;-71
2022/03/10 04:05:45;;;;;;;;;;;13.10;48.50;;;;;;5092970;28;19947;-68
2022/03/10 04:08:12;;;;;;;;;;;13.90;49.00;;;;;;5092970;28;20007;-71
2022/03/10 04:10:39;;;;;;;;;;;13.10;48.40;;;;;;5092202;28;20354;-71
2022/03/10 04:13:06;;;;;;;;;;;13.10;48.40;;;;;;5074181;28;19963;-71
2022/03/10 04:15:33;;;;;;;;;;;13.20;48.50;;;;;;5092861;28;19928;-71
2022/03/10 04:17:59;;;;;;;;;;;13.10;48.50;;;;;;5074336;28;19982;-71
2022/03/10 04:20:26;;;;;;;;;;;13.00;48.40;;;;;;5074396;28;19930;-69
2022/03/10 04:22:55;;;;;;;;;;;13.50;48.70;;;;;;5073870;28;20017;-70
2022/03/10 04:25:21;;;;;;;;;;;13.10;48.40;;;;;;5092611;28;20057;-71
2022/03/10 04:27:49;;;;;;;;;;;13.10;48.50;;;;;;5074357;28;19985;-71
2022/03/10 04:30:15;;;;;;;;;;;13.00;48.40;;;;;;5092400;28;19931;-71
2022/03/10 04:32:42;;;;;;;;;;;13.80;48.90;;;;;;5091424;28;19924;-71
2022/03/10 04:35:09;;;;;;;;;;;13.00;48.40;;;;;;5092446;28;20003;-70
2022/03/10 04:37:36;;;;;;;;;;;13.00;48.40;;;;;;5092120;28;19924;-71
2022/03/10 04:40:06;;;;;;;;;;;13.50;48.60;;;;;;5074601;28;19924;-71
2022/03/10 04:42:32;;;;;;;;;;;13.00;48.40;;;;;;5092143;28;19939;-71
2022/03/10 04:44:59;;;;;;;;;;;13.70;48.80;;;;;;5092291;28;19977;-69
2022/03/10 04:47:25;;;;;;;;;;;13.70;48.80;;;;;;5074374;28;19973;-70
2022/03/10 04:49:52;;;;;;;;;;;13.00;48.50;;;;;;5092482;28;19986;-70
2022/03/10 04:52:19;;;;;;;;;;;13.00;48.40;;;;;;5070400;28;19928;-70
2022/03/10 04:54:45;;;;;;;;;;;13.00;48.30;;;;;;5071667;28;19924;-71
2022/03/10 04:57:13;;;;;;;;;;;13.00;48.40;;;;;;5071095;28;19931;-70
2022/03/10 04:59:40;;;;;;;;;;;13.00;48.40;;;;;;5072118;28;19932;-70
2022/03/10 05:02:07;;;;;;;;;;;13.00;48.40;;;;;;5072143;28;19924;-71
2022/03/10 05:04:34;;;;;;;;;;;13.90;48.90;;;;;;5080424;28;20011;-71
2022/03/10 05:07:01;;;;;;;;;;;13.00;48.30;;;;;;5073945;28;19928;-71
2022/03/10 05:09:27;;;;;;;;;;;13.00;48.30;;;;;;5073838;28;20538;-71
2022/03/10 05:11:54;;;;;;;;;;;13.00;48.30;;;;;;5074202;28;19963;-71
2022/03/10 05:14:22;;;;;;;;;;;13.00;48.30;;;;;;5073518;28;19928;-71
2022/03/10 05:16:48;;;;;;;;;;;13.10;48.40;;;;;;5091942;28;19924;-71
2022/03/10 05:19:15;;;;;;;;;;;13.60;48.60;;;;;;5091664;28;20380;-71
2022/03/10 05:21:41;;;;;;;;;;;13.00;48.30;;;;;;5074306;28;20387;-71
2022/03/10 05:24:08;;;;;;;;;;;13.20;48.30;;;;;;5091538;28;20309;-70
2022/03/10 05:26:35;;;;;;;;;;;13.00;48.20;;;;;;5073777;28;19930;-70
2022/03/10 05:29:02;;;;;;;;;;;13.00;48.30;;;;;;5091606;28;20483;-71
2022/03/10 05:31:29;;;;;;;;;;;13.00;48.30;;;;;;5091627;28;20299;-71
2022/03/10 05:33:56;;;;;;;;;;;13.50;48.50;;;;;;5073411;28;19924;-69
2022/03/10 05:36:23;;;;;;;;;;;13.60;48.60;;;;;;5091561;28;19924;-70
2022/03/10 05:38:50;;;;;;;;;;;13.70;48.60;;;;;;5073732;28;19932;-71
2022/03/10 05:41:17;;;;;;;;;;;13.00;48.20;;;;;;5073887;28;19924;-70
2022/03/10 05:43:43;;;;;;;;;;;13.00;48.10;;;;;;5092271;28;20026;-71
2022/03/10 05:46:10;;;;;;;;;;;13.00;48.20;;;;;;5094869;28;19924;-71
2022/03/10 05:48:38;;;;;;;;;;;13.00;48.20;;;;;;5077161;28;20388;-69
2022/03/10 05:51:04;;;;;;;;;;;13.00;48.20;;;;;;5095488;28;20447;-69
2022/03/10 05:53:31;;;;;;;;;;;13.00;48.20;;;;;;5095040;28;20287;-69
2022/03/10 05:55:57;;;;;;;;;;;13.10;48.20;;;;;;5095449;28;19960;-69
2022/03/10 05:58:24;;;;;;;;;;;13.00;48.20;;;;;;5076820;28;19924;-69
2022/03/10 06:00:50;;;;;;;;;;;13.00;48.20;;;;;;5094993;28;19928;-69
2022/03/10 06:03:19;;;;;;;;;;;13.40;48.40;;;;;;5094652;28;19924;-69
2022/03/10 06:05:47;;;;;;;;;;;13.00;48.20;;;;;;5094951;28;20015;-70
2022/03/10 06:08:13;;;;;;;;;;;13.00;48.20;;;;;;5076635;28;19924;-69
2022/03/10 06:10:40;;;;;;;;;;;13.90;48.70;;;;;;5094758;28;19971;-69
2022/03/10 06:13:07;;;;;;;;;;;13.00;48.10;;;;;;5094239;28;19924;-69
2022/03/10 06:15:33;;;;;;;;;;;13.20;48.30;;;;;;5076641;28;20429;-69
2022/03/10 06:18:00;;;;;;;;;;;13.60;49.10;;;;;;5076688;28;20311;-69
2022/03/10 06:20:30;;;;;;;;;;;13.00;48.20;;;;;;5076814;28;20287;-69
2022/03/10 06:22:58;;;;;;;;;;;13.00;48.20;;;;;;5076482;28;19928;-69
2022/03/10 06:25:25;;;;;;;;;;;13.30;48.30;;;;;;5076385;28;19930;-69
2022/03/10 06:27:51;;;;;;;;;;;13.00;48.10;;;;;;5094237;28;19966;-69
2022/03/10 06:30:18;;;;;;;;;;;13.00;48.20;;;;;;5094672;28;19930;-69
2022/03/10 06:32:44;;;;;;;;;;;13.00;48.10;;;;;;5094032;28;19930;-69
2022/03/10 06:35:11;;;;;;;;;;;13.00;48.10;;;;;;5094495;28;19924;-69
2022/03/10 06:37:39;;;;;;;;;;;13.00;48.10;;;;;;5076280;28;19924;-69
2022/03/10 06:40:09;;;;;;;;;;;13.00;48.10;;;;;;5075815;28;20011;-69
2022/03/10 06:42:36;;;;;;;;;;;13.00;48.10;;;;;;5076095;28;20019;-69
2022/03/10 06:45:02;;;;;;;;;;;13.00;48.10;;;;;;5076373;28;19924;-69
2022/03/10 06:47:29;;;;;;;;;;;13.00;48.10;;;;;;5094270;28;20003;-69
2022/03/10 06:49:55;;;;;;;;;;;13.00;48.10;;;;;;5093808;28;19924;-70
2022/03/10 06:52:22;;;;;;;;;;;13.90;48.60;;;;;;5093782;28;19924;-69
2022/03/10 06:54:48;;;;;;;;;;;13.30;48.20;;;;;;5092969;28;19924;-69
2022/03/10 06:57:16;;;;;;;;;;;13.00;48.10;;;;;;5075686;28;19923;-70
2022/03/10 06:59:43;;;;;;;;;;;13.00;48.00;;;;;;5093809;28;19930;-69
2022/03/10 07:02:09;;;;;;;;;;;13.80;48.50;;;;;;5093695;28;19934;-69
2022/03/10 07:04:36;;;;;;;;;;;13.00;48.10;;;;;;5075735;28;19930;-69
2022/03/10 07:07:02;;;;;;;;;;;13.00;48.00;;;;;;5075675;28;19924;-69
2022/03/10 07:09:29;;;;;;;;;;;13.00;48.00;;;;;;5075635;28;19930;-69
2022/03/10 07:11:56;;;;;;;;;;;13.70;48.40;;;;;;5093322;28;19997;-69
2022/03/10 07:14:24;;;;;;;;;;;13.00;48.00;;;;;;5093205;28;20406;-68
2022/03/10 07:16:51;;;;;;;;;;;13.70;48.50;;;;;;5074652;28;19924;-69
2022/03/10 07:19:17;;;;;;;;;;;13.60;48.40;;;;;;5075185;28;19924;-67
2022/03/10 07:21:44;;;;;;;;;;;13.10;48.10;;;;;;5075151;28;19924;-68
2022/03/10 07:24:11;;;;;;;;;;;13.10;48.10;;;;;;5075040;28;19928;-68
2022/03/10 07:26:38;;;;;;;;;;;13.30;48.10;;;;;;5075045;28;20020;-67
2022/03/10 07:29:04;;;;;;;;;;;13.10;48.00;;;;;;5074848;28;19930;-68
2022/03/10 07:31:32;;;;;;;;;;;13.90;48.40;;;;;;5093292;28;19928;-68
2022/03/10 07:33:59;;;;;;;;;;;13.90;48.40;;;;;;5074611;28;19924;-68
2022/03/10 07:36:26;;;;;;;;;;;13.60;48.20;;;;;;5074831;28;19931;-67
2022/03/10 07:38:52;;;;;;;;;;;13.20;47.90;;;;;;5092896;28;19930;-68
2022/03/10 07:41:19;;;;;;;;;;;13.60;48.10;;;;;;5093078;28;19924;-71
2022/03/10 07:43:46;;;;;;;;;;;13.20;47.80;;;;;;5074339;28;19924;-68
2022/03/10 07:46:12;;;;;;;;;;;13.20;47.80;;;;;;5092974;28;19931;-69
2022/03/10 07:48:40;;;;;;;;;;;13.30;47.80;;;;;;5057780;28;20345;-69
2022/03/10 07:51:07;;;;;;;;;;;13.30;47.90;;;;;;5092377;28;19931;-69
2022/03/10 07:53:33;;;;;;;;;;;13.40;47.90;;;;;;5092368;28;19930;-69
2022/03/10 07:56:00;;;;;;;;;;;13.40;48.50;;;;;;5074751;28;19931;-70
2022/03/10 07:58:26;;;;;;;;;;;13.50;47.90;;;;;;5092714;28;19924;-69
2022/03/10 08:00:54;;;;;;;;;;;13.60;47.90;;;;;;5093019;28;20269;-69
2022/03/10 08:03:21;;;;;;;;;;;13.60;47.80;;;;;;5074715;28;20380;-70
2022/03/10 08:05:50;;;;;;;;;;;13.70;47.80;;;;;;5074573;28;19973;-69
2022/03/10 08:08:16;;;;;;;;;;;13.70;47.70;;;;;;5092760;28;19934;-69
2022/03/10 08:10:43;;;;;;;;;;;13.80;47.70;;;;;;5092764;28;19924;-69
2022/03/10 08:13:10;;;;;;;;;;;13.80;47.60;;;;;;5092542;28;19924;-69
2022/03/10 08:15:36;;;;;;;;;;;14.00;47.70;;;;;;5093163;28;19931;-69
2022/03/10 08:18:03;;;;;;;;;;;13.80;47.60;;;;;;5092988;28;19931;-69
2022/03/10 08:20:30;;;;;;;;;;;13.90;47.60;;;;;;5074980;28;19928;-70
2022/03/10 08:22:58;;;;;;;;;;;13.90;47.50;;;;;;5074306;28;19924;-69
2022/03/10 08:25:24;;;;;;;;;;;14.00;47.50;;;;;;5092796;28;19924;-69
2022/03/10 08:27:51;;;;;;;;;;;14.00;47.50;;;;;;5074229;28;19942;-69
2022/03/10 08:30:18;;;;;;;;;;;14.00;47.50;;;;;;5091745;28;19930;-69
2022/03/10 08:32:44;;;;;;;;;;;14.00;47.50;;;;;;5092206;28;19974;-69
2022/03/10 08:35:11;;;;;;;;;;;14.10;47.60;;;;;;5092766;28;20538;-68
2022/03/10 08:37:38;;;;;;;;;;;14.20;47.50;;;;;;5092320;28;19924;-69
2022/03/10 08:40:07;;;;;;;;;;;14.20;47.50;;;;;;5074109;28;19967;-68
2022/03/10 08:42:34;;;;;;;;;;;14.20;47.40;;;;;;5091848;28;19925;-69
2022/03/10 08:45:00;;;;;;;;;;;14.20;47.40;;;;;;5074196;28;20372;-69
2022/03/10 08:47:28;;;;;;;;;;;14.20;47.40;;;;;;5073830;28;20284;-69
2022/03/10 08:49:55;;;;;;;;;;;14.20;47.40;;;;;;5089066;28;20460;-69
2022/03/10 08:52:21;;;;;;;;;;;14.20;47.40;;;;;;5073511;28;19928;-69
2022/03/10 08:54:48;;;;;;;;;;;14.20;47.40;;;;;;5073755;28;20028;-69
2022/03/10 08:57:16;;;;;;;;;;;14.20;47.40;;;;;;5071027;28;19928;-69
2022/03/10 08:59:43;;;;;;;;;;;14.20;47.40;;;;;;5091558;28;19931;-71
2022/03/10 09:02:09;;;;;;;;;;;14.20;47.40;;;;;;5073972;28;19928;-70
2022/03/10 09:04:36;;;;;;;;;;;14.20;47.50;;;;;;5092004;28;19930;-70
2022/03/10 09:07:03;;;;;;;;;;;14.20;47.40;;;;;;5057674;28;20391;-70
2022/03/10 09:09:30;;;;;;;;;;;14.30;47.40;;;;;;5092279;28;20530;-71
2022/03/10 09:11:56;;;;;;;;;;;14.30;47.40;;;;;;5074206;28;19969;-70
2022/03/10 09:14:24;;;;;;;;;;;14.30;47.40;;;;;;5092022;28;19931;-70
2022/03/10 09:16:52;;;;;;;;;;;14.30;47.40;;;;;;5074029;28;19924;-71
2022/03/10 09:19:18;;;;;;;;;;;14.30;47.40;;;;;;5095503;28;19931;-70
2022/03/10 09:21:45;;;;;;;;;;;14.30;47.40;;;;;;5095136;28;19924;-71
2022/03/10 09:24:12;;;;;;;;;;;14.30;47.40;;;;;;5077639;28;19928;-71
2022/03/10 09:26:39;;;;;;;;;;;14.30;47.40;;;;;;5095688;28;19924;-69
2022/03/10 09:29:06;;;;;;;;;;;14.30;47.50;;;;;;5095694;28;19978;-71
2022/03/10 09:31:33;;;;;;;;;;;14.40;48.60;;;;;;5077736;28;19935;-71
2022/03/10 09:34:00;;;;;;;;;;;14.50;48.90;;;;;;5077459;28;19924;-71
2022/03/10 09:36:26;;;;;;;;;;;14.60;49.00;;;;;;5095388;28;19924;-69
2022/03/10 09:38:53;;;;;;;;;;;14.70;49.00;;;;;;5077574;28;20291;-70
2022/03/10 09:41:20;;;;;;;;;;;14.90;49.10;;;;;;5077721;28;20287;-71
2022/03/10 09:43:47;;;;;;;;;;;14.90;48.60;;;;;;5094957;28;20285;-71
2022/03/10 09:46:13;;;;;;;;;;;15.00;48.40;;;;;;5095420;28;19946;-71
2022/03/10 09:48:41;;;;;;;;;;;15.00;48.30;;;;;;5077393;28;19946;-71
2022/03/10 09:51:08;;;;;;;;;;;15.10;48.30;;;;;;5076265;28;19924;-71
2022/03/10 09:53:35;;;;;;;;;;;15.10;48.40;;;;;;5093693;28;19924;-69
2022/03/10 09:56:02;;;;;;;;;;;15.20;48.40;;;;;;5094152;28;19928;-71
2022/03/10 09:58:28;;;;;;;;;;;15.20;48.40;;;;;;5076745;28;20399;-71
2022/03/10 10:00:58;;;;;;;;;;;15.30;48.40;;;;;;5076655;28;20433;-71
2022/03/10 10:03:25;;;;;;;;;;;15.30;48.40;;;;;;5093655;28;19924;-71
2022/03/10 10:05:56;;;;;;;;;;;15.30;48.30;;;;;;5076356;28;19931;-71
2022/03/10 10:08:23;;;;;;;;;;;15.40;48.30;;;;;;5094530;28;19924;-71
2022/03/10 10:10:50;;;;;;;;;;;15.50;48.20;;;;;;5076267;28;20343;-69
2022/03/10 10:13:26;;;;;;;;;;;15.50;48.20;;;;;;5076338;28;19924;-70
2022/03/10 10:15:53;;;;;;;;;;;15.50;48.20;;;;;;5092014;28;20310;-71
2022/03/10 10:18:20;;;;;;;;;;;15.50;48.10;;;;;;5094342;28;19939;-70
2022/03/10 10:20:47;;;;;;;;;;;15.60;48.20;;;;;;5076487;28;19930;-70
2022/03/10 10:23:22;;;;;;;;;;;15.60;48.20;;;;;;5093935;28;20399;-70
2022/03/10 10:25:49;;;;;;;;;;;15.70;48.10;;;;;;5074290;28;19931;-69
2022/03/10 10:28:18;;;;;;;;;;;15.80;48.20;;;;;;5076068;28;20372;-70
2022/03/10 10:30:51;;;;;;;;;;;15.80;48.10;;;;;;5090644;28;19974;-71
2022/03/10 10:33:18;;;;;;;;;;;15.80;48.00;;;;;;5094295;28;19924;-71
2022/03/10 10:35:45;;;;;;;;;;;15.80;48.00;;;;;;5092327;28;19924;-69
2022/03/10 10:38:12;;;;;;;;;;;15.90;47.90;;;;;;5073644;28;19928;-71
2022/03/10 10:40:40;;;;;;;;;;;15.90;47.80;;;;;;5093013;28;19924;-70
2022/03/10 10:43:07;;;;;;;;;;;15.90;47.90;;;;;;5071389;28;19925;-71
2022/03/10 10:45:36;;;;;;;;;;;16.00;47.80;;;;;;5075410;28;19924;-71
2022/03/10 10:48:03;;;;;;;;;;;16.00;47.70;;;;;;5093980;28;19927;-70
2022/03/10 10:50:30;;;;;;;;;;;16.10;47.60;;;;;;5075186;28;19928;-71
2022/03/10 10:52:56;;;;;;;;;;;16.20;47.60;;;;;;5092928;28;19928;-69
2022/03/10 10:55:23;;;;;;;;;;;16.20;47.40;;;;;;5075904;28;19923;-69
2022/03/10 10:57:51;;;;;;;;;;;16.20;47.30;;;;;;5093031;28;19924;-69
2022/03/10 11:00:18;;;;;;;;;;;16.20;47.30;;;;;;5094149;28;19930;-70
2022/03/10 11:02:45;;;;;;;;;;;16.20;47.30;;;;;;5072162;28;19924;-70
2022/03/10 11:05:14;;;;;;;;;;;16.10;47.30;;;;;;5072164;28;19924;-70
2022/03/10 11:07:41;;;;;;;;;;;16.10;47.40;;;;;;5073508;28;20388;-70
2022/03/10 11:10:08;;;;;;;;;;;16.20;47.40;;;;;;5073365;28;20591;-69
2022/03/10 11:12:37;;;;;;;;;;;16.20;47.30;;;;;;5072272;28;19924;-69
2022/03/10 11:15:07;;;;;;;;;;;16.10;47.10;;;;;;5074852;28;19925;-70
2022/03/10 11:17:34;;;;;;;;;;;16.10;47.10;;;;;;5075202;28;19971;-70
2022/03/10 11:20:00;;;;;;;;;;;16.10;47.10;;;;;;5093104;28;20273;-69
2022/03/10 11:22:28;;;;;;;;;;;16.10;47.00;;;;;;5075560;28;20272;-70
2022/03/10 11:25:16;;;;;;;;;;;16.10;47.00;;;;;;5075685;28;19930;-69
2022/03/10 11:27:43;;;;;;;;;;;16.10;46.90;;;;;;5059366;28;19928;-69
2022/03/10 11:30:11;;;;;;;;;;;16.10;47.00;;;;;;5074960;28;19924;-68
2022/03/10 11:32:38;;;;;;;;;;;16.10;47.00;;;;;;5093220;28;19930;-68
2022/03/10 11:35:05;;;;;;;;;;;16.10;46.90;;;;;;5093565;28;19924;-69
2022/03/10 11:37:48;;;;;;;;;;;16.10;47.00;;;;;;5075479;28;19924;-68
2022/03/10 11:40:15;;;;;;;;;;;16.10;46.90;;;;;;5075104;28;19924;-70
2022/03/10 11:42:42;;;;;;;;;;;16.10;46.90;;;;;;5092196;28;19930;-69
2022/03/10 11:45:09;;;;;;;;;;;16.10;46.90;;;;;;5093234;28;19935;-69
2022/03/10 11:47:38;;;;;;;;;;;16.10;46.90;;;;;;5092282;28;19931;-70
2022/03/10 11:50:23;;;;;;;;;;;16.10;46.80;;;;;;5093051;28;20294;-68
2022/03/10 11:52:50;;;;;;;;;;;16.10;46.80;;;;;;5092959;28;19978;-70
2022/03/10 11:55:17;;;;;;;;;;;16.10;46.80;;;;;;5092798;28;20372;-68
2022/03/10 11:57:43;;;;;;;;;;;16.10;46.80;;;;;;5092919;28;19935;-72
2022/03/10 12:00:10;;;;;;;;;;;16.10;46.80;;;;;;5074552;28;19998;-72
2022/03/10 12:02:43;;;;;;;;;;;16.10;46.80;;;;;;5091919;28;20292;-69
2022/03/10 12:05:10;;;;;;;;;;;16.10;46.80;;;;;;5092110;28;21177;-70
2022/03/10 12:07:36;;;;;;;;;;;16.10;46.70;;;;;;5074979;28;19924;-70
2022/03/10 12:10:06;;;;;;;;;;;16.10;46.80;;;;;;5092548;28;20573;-69
2022/03/10 12:12:37;;;;;;;;;;;16.10;46.80;;;;;;5073583;28;19927;-69
2022/03/10 12:15:22;;;;;;;;;;;16.10;46.80;;;;;;5073983;28;19928;-70
2022/03/10 12:17:52;;;;;;;;;;;16.10;46.70;;;;;;5089852;28;19924;-71
2022/03/10 12:20:20;;;;;;;;;;;16.10;46.70;;;;;;5092144;28;19931;-70
2022/03/10 12:23:01;;;;;;;;;;;16.10;46.70;;;;;;5074436;28;20384;-70
2022/03/10 12:25:28;;;;;;;;;;;16.10;46.70;;;;;;5073425;28;19935;-70
2022/03/10 12:27:55;;;;;;;;;;;16.10;46.70;;;;;;5074574;28;19993;-70
2022/03/10 12:30:22;;;;;;;;;;;16.10;46.70;;;;;;5092300;28;20372;-68
2022/03/10 12:32:51;;;;;;;;;;;16.10;46.70;;;;;;5073405;28;20015;-70
2022/03/10 12:35:18;;;;;;;;;;;16.20;46.70;;;;;;5074348;28;20006;-68
2022/03/10 12:37:46;;;;;;;;;;;16.10;46.60;;;;;;5074059;28;19924;-70
2022/03/10 12:40:16;;;;;;;;;;;16.10;46.70;;;;;;5092302;28;19930;-71
2022/03/10 12:42:43;;;;;;;;;;;16.10;46.60;;;;;;5092432;28;19930;-71
2022/03/10 12:45:10;;;;;;;;;;;16.10;46.70;;;;;;5092614;28;19932;-70
2022/03/10 12:47:38;;;;;;;;;;;16.10;46.70;;;;;;5057829;28;20025;-71
2022/03/10 12:50:06;;;;;;;;;;;16.10;46.70;;;;;;5073616;28;19977;-71
2022/03/10 12:52:40;;;;;;;;;;;16.10;46.70;;;;;;5074831;28;19924;-72
2022/03/10 12:55:07;;;;;;;;;;;16.10;46.50;;;;;;5078619;28;19924;-71
2022/03/10 12:57:35;;;;;;;;;;;16.10;46.60;;;;;;5078523;28;19934;-72
2022/03/10 13:00:02;;;;;;;;;;;16.10;47.30;;;;;;5078073;28;20380;-72
2022/03/10 13:02:29;;;;;;;;;;;16.10;46.70;;;;;;5077842;28;20015;-70
2022/03/10 13:04:56;;;;;;;;;;;16.10;46.80;;;;;;5077703;28;19932;-72
2022/03/10 13:07:24;;;;;;;;;;;16.10;46.70;;;;;;5078551;28;20307;-71
2022/03/10 13:09:51;;;;;;;;;;;16.10;46.70;;;;;;5077622;28;20403;-69
2022/03/10 13:12:23;;;;;;;;;;;16.10;46.70;;;;;;5077774;28;19947;-70
2022/03/10 13:14:49;;;;;;;;;;;16.10;46.50;;;;;;5078034;28;19930;-70
2022/03/10 13:17:16;;;;;;;;;;;16.10;46.50;;;;;;5095869;28;20011;-70
2022/03/10 13:19:43;;;;;;;;;;;16.10;46.40;;;;;;5078110;28;19924;-71
2022/03/10 13:22:11;;;;;;;;;;;16.10;46.40;;;;;;5095509;28;19935;-68
2022/03/10 13:24:41;;;;;;;;;;;16.10;46.50;;;;;;5095504;28;19924;-71
2022/03/10 13:27:08;;;;;;;;;;;16.00;46.60;;;;;;5095959;28;19977;-69
2022/03/10 13:29:35;;;;;;;;;;;16.10;46.60;;;;;;5077933;28;19955;-69
2022/03/10 13:32:02;;;;;;;;;;;16.10;46.70;;;;;;5077485;28;20392;-70
2022/03/10 13:34:28;;;;;;;;;;;16.00;46.70;;;;;;5077085;28;19934;-71
2022/03/10 13:36:56;;;;;;;;;;;16.00;46.80;;;;;;5076962;28;19924;-71
2022/03/10 13:39:23;;;;;;;;;;;16.00;46.90;;;;;;5077235;28;20290;-70
2022/03/10 13:41:51;;;;;;;;;;;16.00;46.90;;;;;;5094817;28;19924;-70
2022/03/10 13:44:18;;;;;;;;;;;16.00;46.90;;;;;;5094928;28;19924;-70
2022/03/10 13:46:44;;;;;;;;;;;16.10;47.00;;;;;;5077107;28;19932;-70
2022/03/10 13:49:18;;;;;;;;;;;16.10;47.00;;;;;;5060625;28;19924;-70
2022/03/10 13:51:46;;;;;;;;;;;16.10;47.00;;;;;;5095579;28;19928;-70
2022/03/10 13:54:13;;;;;;;;;;;16.10;47.00;;;;;;5094840;28;19967;-70
2022/03/10 13:56:41;;;;;;;;;;;16.10;47.00;;;;;;5077294;28;20011;-69
2022/03/10 13:59:09;;;;;;;;;;;16.10;47.00;;;;;;5077117;28;19924;-68
2022/03/10 14:01:37;;;;;;;;;;;16.10;46.90;;;;;;5095228;28;19947;-69
2022/03/10 14:04:08;;;;;;;;;;;16.10;47.20;;;;;;5075756;28;19924;-70
2022/03/10 14:06:41;;;;;;;;;;;16.10;46.90;;;;;;5094589;28;19939;-70
2022/03/10 14:09:07;;;;;;;;;;;16.20;47.00;;;;;;5076974;28;19924;-70
2022/03/10 14:11:34;;;;;;;;;;;16.20;47.00;;;;;;5093484;28;19928;-70
2022/03/10 14:14:01;;;;;;;;;;;16.20;47.00;;;;;;5093785;28;19924;-70
2022/03/10 14:16:31;;;;;;;;;;;16.20;47.00;;;;;;5093616;28;20041;-70
2022/03/10 14:18:58;;;;;;;;;;;16.20;47.00;;;;;;5075737;28;19924;-70
2022/03/10 14:21:24;;;;;;;;;;;16.20;47.00;;;;;;5093995;28;20023;-69